sensor_id;sensor_type;location;lat;lon;timestamp;P1;durP1;ratioP1;P2;durP2;ratioP2
8714;SDS011;4394;51.208;8.904;2023-04-03T00:00:11;2.63;;;0.90;;
8714;SDS011;4394;51.208;8.904;2023-04-03T00:02:59;2.07;;;1.00;;
8714;SDS011;4394;51.208;8.904;2023-04-03T00:05:47;2.37;;;1.10;;
8714;SDS011;4394;51.208;8.904;2023-04-03T00:08:36;2.20;;;1.17;;
8714;SDS011;4394;51.208;8.904;2023-04-03T00:11:25;2.47;;;1.17;;
8714;SDS011;4394;51.208;8.904;2023-04-03T00:14:14;4.67;;;1.23;;
8714;SDS011;4394;51.208;8.904;2023-04-03T00:17:02;1.77;;;1.10;;
8714;SDS011;4394;51.208;8.904;2023-04-03T00:19:51;2.67;;;1.13;;
8714;SDS011;4394;51.208;8.904;2023-04-03T00:22:39;1.93;;;1.00;;
8714;SDS011;4394;51.208;8.904;2023-04-03T00:25:27;2.27;;;1.30;;
8714;SDS011;4394;51.208;8.904;2023-04-03T00:28:15;3.23;;;0.97;;
8714;SDS011;4394;51.208;8.904;2023-04-03T00:31:04;2.10;;;1.10;;
8714;SDS011;4394;51.208;8.904;2023-04-03T00:33:52;1.70;;;0.97;;
8714;SDS011;4394;51.208;8.904;2023-04-03T00:36:41;2.40;;;1.47;;
8714;SDS011;4394;51.208;8.904;2023-04-03T00:39:29;2.40;;;1.27;;
8714;SDS011;4394;51.208;8.904;2023-04-03T00:42:17;4.83;;;1.00;;
8714;SDS011;4394;51.208;8.904;2023-04-03T00:45:23;2.73;;;1.17;;
8714;SDS011;4394;51.208;8.904;2023-04-03T00:48:17;3.77;;;1.50;;
8714;SDS011;4394;51.208;8.904;2023-04-03T00:51:09;2.73;;;0.97;;
8714;SDS011;4394;51.208;8.904;2023-04-03T00:54:00;2.60;;;1.30;;
8714;SDS011;4394;51.208;8.904;2023-04-03T00:56:51;2.30;;;1.03;;
8714;SDS011;4394;51.208;8.904;2023-04-03T00:59:41;2.23;;;1.20;;
8714;SDS011;4394;51.208;8.904;2023-04-03T01:02:33;2.90;;;0.97;;
8714;SDS011;4394;51.208;8.904;2023-04-03T01:05:23;2.30;;;1.10;;
8714;SDS011;4394;51.208;8.904;2023-04-03T01:08:11;1.87;;;1.03;;
8714;SDS011;4394;51.208;8.904;2023-04-03T01:10:59;2.00;;;1.00;;
8714;SDS011;4394;51.208;8.904;2023-04-03T01:13:47;2.97;;;1.00;;
8714;SDS011;4394;51.208;8.904;2023-04-03T01:16:36;5.13;;;1.47;;
8714;SDS011;4394;51.208;8.904;2023-04-03T01:19:24;2.57;;;1.20;;
8714;SDS011;4394;51.208;8.904;2023-04-03T01:22:16;3.17;;;1.13;;
8714;SDS011;4394;51.208;8.904;2023-04-03T01:25:11;3.50;;;1.50;;
8714;SDS011;4394;51.208;8.904;2023-04-03T01:27:59;2.30;;;1.00;;
8714;SDS011;4394;51.208;8.904;2023-04-03T01:30:48;3.37;;;1.20;;
8714;SDS011;4394;51.208;8.904;2023-04-03T01:33:42;2.63;;;1.10;;
8714;SDS011;4394;51.208;8.904;2023-04-03T01:36:31;1.33;;;1.07;;
8714;SDS011;4394;51.208;8.904;2023-04-03T01:39:19;4.17;;;1.30;;
8714;SDS011;4394;51.208;8.904;2023-04-03T01:42:08;2.83;;;1.10;;
8714;SDS011;4394;51.208;8.904;2023-04-03T01:44:56;2.70;;;1.00;;
8714;SDS011;4394;51.208;8.904;2023-04-03T01:47:44;8.90;;;1.83;;
8714;SDS011;4394;51.208;8.904;2023-04-03T01:50:34;1.93;;;1.20;;
8714;SDS011;4394;51.208;8.904;2023-04-03T01:53:22;3.33;;;1.10;;
8714;SDS011;4394;51.208;8.904;2023-04-03T01:56:10;2.70;;;1.37;;
8714;SDS011;4394;51.208;8.904;2023-04-03T01:58:58;2.70;;;1.10;;
8714;SDS011;4394;51.208;8.904;2023-04-03T02:01:46;3.53;;;1.00;;
8714;SDS011;4394;51.208;8.904;2023-04-03T02:04:34;4.03;;;1.37;;
8714;SDS011;4394;51.208;8.904;2023-04-03T02:07:24;2.00;;;1.17;;
8714;SDS011;4394;51.208;8.904;2023-04-03T02:10:12;2.50;;;1.50;;
8714;SDS011;4394;51.208;8.904;2023-04-03T02:13:00;3.10;;;1.37;;
8714;SDS011;4394;51.208;8.904;2023-04-03T02:15:48;2.87;;;1.60;;
8714;SDS011;4394;51.208;8.904;2023-04-03T02:18:36;6.53;;;1.30;;
8714;SDS011;4394;51.208;8.904;2023-04-03T02:21:24;2.03;;;1.10;;
8714;SDS011;4394;51.208;8.904;2023-04-03T02:24:13;4.23;;;1.50;;
8714;SDS011;4394;51.208;8.904;2023-04-03T02:27:01;2.03;;;1.83;;
8714;SDS011;4394;51.208;8.904;2023-04-03T02:29:49;2.10;;;1.20;;
8714;SDS011;4394;51.208;8.904;2023-04-03T02:32:37;4.90;;;1.27;;
8714;SDS011;4394;51.208;8.904;2023-04-03T02:35:27;4.10;;;1.50;;
8714;SDS011;4394;51.208;8.904;2023-04-03T02:38:15;5.17;;;1.67;;
8714;SDS011;4394;51.208;8.904;2023-04-03T02:41:05;3.17;;;1.10;;
8714;SDS011;4394;51.208;8.904;2023-04-03T02:43:53;0.93;;;0.80;;
8714;SDS011;4394;51.208;8.904;2023-04-03T02:46:41;3.70;;;1.37;;
8714;SDS011;4394;51.208;8.904;2023-04-03T02:49:29;4.23;;;1.43;;
8714;SDS011;4394;51.208;8.904;2023-04-03T02:52:17;3.27;;;1.37;;
8714;SDS011;4394;51.208;8.904;2023-04-03T02:55:06;4.30;;;1.40;;
8714;SDS011;4394;51.208;8.904;2023-04-03T02:57:56;3.97;;;1.20;;
8714;SDS011;4394;51.208;8.904;2023-04-03T03:00:43;2.30;;;1.00;;
8714;SDS011;4394;51.208;8.904;2023-04-03T03:03:31;4.27;;;1.53;;
8714;SDS011;4394;51.208;8.904;2023-04-03T03:06:19;3.90;;;1.30;;
8714;SDS011;4394;51.208;8.904;2023-04-03T03:09:07;3.97;;;1.57;;
8714;SDS011;4394;51.208;8.904;2023-04-03T03:11:55;4.00;;;1.50;;
8714;SDS011;4394;51.208;8.904;2023-04-03T03:14:45;3.83;;;1.80;;
8714;SDS011;4394;51.208;8.904;2023-04-03T03:17:33;4.57;;;1.80;;
8714;SDS011;4394;51.208;8.904;2023-04-03T03:20:22;5.43;;;1.50;;
8714;SDS011;4394;51.208;8.904;2023-04-03T03:23:10;3.40;;;1.30;;
8714;SDS011;4394;51.208;8.904;2023-04-03T03:25:59;4.03;;;1.60;;
8714;SDS011;4394;51.208;8.904;2023-04-03T03:28:49;4.20;;;1.57;;
8714;SDS011;4394;51.208;8.904;2023-04-03T03:31:38;4.27;;;1.47;;
8714;SDS011;4394;51.208;8.904;2023-04-03T03:34:26;4.87;;;1.83;;
8714;SDS011;4394;51.208;8.904;2023-04-03T03:37:14;6.20;;;1.60;;
8714;SDS011;4394;51.208;8.904;2023-04-03T03:40:02;2.60;;;1.33;;
8714;SDS011;4394;51.208;8.904;2023-04-03T03:42:51;4.27;;;1.80;;
8714;SDS011;4394;51.208;8.904;2023-04-03T03:45:39;3.00;;;1.60;;
8714;SDS011;4394;51.208;8.904;2023-04-03T03:48:28;1.77;;;1.30;;
8714;SDS011;4394;51.208;8.904;2023-04-03T03:51:16;7.50;;;2.10;;
8714;SDS011;4394;51.208;8.904;2023-04-03T03:54:04;3.23;;;1.77;;
8714;SDS011;4394;51.208;8.904;2023-04-03T03:56:53;5.67;;;1.77;;
8714;SDS011;4394;51.208;8.904;2023-04-03T03:59:41;4.03;;;1.80;;
8714;SDS011;4394;51.208;8.904;2023-04-03T04:02:30;3.50;;;1.57;;
8714;SDS011;4394;51.208;8.904;2023-04-03T04:05:20;3.30;;;1.20;;
8714;SDS011;4394;51.208;8.904;2023-04-03T04:08:08;2.20;;;1.50;;
8714;SDS011;4394;51.208;8.904;2023-04-03T04:10:56;5.10;;;1.50;;
8714;SDS011;4394;51.208;8.904;2023-04-03T04:13:44;2.83;;;1.57;;
8714;SDS011;4394;51.208;8.904;2023-04-03T04:16:32;2.60;;;1.40;;
8714;SDS011;4394;51.208;8.904;2023-04-03T04:19:20;4.07;;;1.97;;
8714;SDS011;4394;51.208;8.904;2023-04-03T04:22:10;4.77;;;1.80;;
8714;SDS011;4394;51.208;8.904;2023-04-03T04:24:58;5.60;;;1.50;;
8714;SDS011;4394;51.208;8.904;2023-04-03T04:27:46;2.40;;;1.43;;
8714;SDS011;4394;51.208;8.904;2023-04-03T04:30:34;3.43;;;1.27;;
8714;SDS011;4394;51.208;8.904;2023-04-03T04:33:22;5.13;;;2.40;;
8714;SDS011;4394;51.208;8.904;2023-04-03T04:36:10;4.17;;;1.73;;
8714;SDS011;4394;51.208;8.904;2023-04-03T04:38:59;2.53;;;1.40;;
8714;SDS011;4394;51.208;8.904;2023-04-03T04:41:48;7.57;;;2.13;;
8714;SDS011;4394;51.208;8.904;2023-04-03T04:44:36;2.77;;;1.60;;
8714;SDS011;4394;51.208;8.904;2023-04-03T04:47:24;3.17;;;1.70;;
8714;SDS011;4394;51.208;8.904;2023-04-03T04:50:12;2.33;;;1.33;;
8714;SDS011;4394;51.208;8.904;2023-04-03T04:53:00;3.90;;;1.60;;
8714;SDS011;4394;51.208;8.904;2023-04-03T04:55:50;2.80;;;1.53;;
8714;SDS011;4394;51.208;8.904;2023-04-03T04:58:38;4.87;;;2.07;;
8714;SDS011;4394;51.208;8.904;2023-04-03T05:01:26;3.40;;;1.77;;
8714;SDS011;4394;51.208;8.904;2023-04-03T05:04:15;3.03;;;1.40;;
8714;SDS011;4394;51.208;8.904;2023-04-03T05:07:03;1.77;;;1.40;;
8714;SDS011;4394;51.208;8.904;2023-04-03T05:09:51;5.70;;;2.03;;
8714;SDS011;4394;51.208;8.904;2023-04-03T05:12:40;5.40;;;1.30;;
8714;SDS011;4394;51.208;8.904;2023-04-03T05:15:28;5.77;;;1.90;;
8714;SDS011;4394;51.208;8.904;2023-04-03T05:18:16;5.37;;;1.60;;
8714;SDS011;4394;51.208;8.904;2023-04-03T05:21:04;6.10;;;1.63;;
8714;SDS011;4394;51.208;8.904;2023-04-03T05:23:52;3.70;;;1.37;;
8714;SDS011;4394;51.208;8.904;2023-04-03T05:26:40;2.53;;;1.37;;
8714;SDS011;4394;51.208;8.904;2023-04-03T05:29:30;6.37;;;1.60;;
8714;SDS011;4394;51.208;8.904;2023-04-03T05:32:18;2.77;;;1.60;;
8714;SDS011;4394;51.208;8.904;2023-04-03T05:35:06;4.20;;;1.97;;
8714;SDS011;4394;51.208;8.904;2023-04-03T05:37:55;6.33;;;2.07;;
8714;SDS011;4394;51.208;8.904;2023-04-03T05:40:43;3.50;;;1.67;;
8714;SDS011;4394;51.208;8.904;2023-04-03T05:43:31;3.87;;;1.70;;
8714;SDS011;4394;51.208;8.904;2023-04-03T05:46:22;2.97;;;1.50;;
8714;SDS011;4394;51.208;8.904;2023-04-03T05:49:10;6.47;;;2.30;;
8714;SDS011;4394;51.208;8.904;2023-04-03T05:51:58;5.27;;;2.30;;
8714;SDS011;4394;51.208;8.904;2023-04-03T05:54:46;3.67;;;2.07;;
8714;SDS011;4394;51.208;8.904;2023-04-03T05:57:34;5.27;;;1.80;;
8714;SDS011;4394;51.208;8.904;2023-04-03T06:00:23;4.70;;;1.60;;
8714;SDS011;4394;51.208;8.904;2023-04-03T06:03:12;5.77;;;1.90;;
8714;SDS011;4394;51.208;8.904;2023-04-03T06:06:02;4.20;;;2.20;;
8714;SDS011;4394;51.208;8.904;2023-04-03T06:08:51;5.63;;;1.83;;
8714;SDS011;4394;51.208;8.904;2023-04-03T06:11:39;7.37;;;2.30;;
8714;SDS011;4394;51.208;8.904;2023-04-03T06:14:28;4.97;;;1.63;;
8714;SDS011;4394;51.208;8.904;2023-04-03T06:17:17;4.33;;;1.73;;
8714;SDS011;4394;51.208;8.904;2023-04-03T06:20:07;2.50;;;1.70;;
8714;SDS011;4394;51.208;8.904;2023-04-03T06:22:56;5.83;;;1.80;;
8714;SDS011;4394;51.208;8.904;2023-04-03T06:25:44;2.00;;;1.57;;
8714;SDS011;4394;51.208;8.904;2023-04-03T06:28:33;6.17;;;1.90;;
8714;SDS011;4394;51.208;8.904;2023-04-03T06:31:21;3.03;;;1.77;;
8714;SDS011;4394;51.208;8.904;2023-04-03T06:34:09;4.83;;;1.80;;
8714;SDS011;4394;51.208;8.904;2023-04-03T06:37:00;5.43;;;1.93;;
8714;SDS011;4394;51.208;8.904;2023-04-03T06:39:48;3.50;;;2.03;;
8714;SDS011;4394;51.208;8.904;2023-04-03T06:42:36;3.30;;;1.60;;
8714;SDS011;4394;51.208;8.904;2023-04-03T06:45:24;3.10;;;2.20;;
8714;SDS011;4394;51.208;8.904;2023-04-03T06:48:12;4.63;;;1.60;;
8714;SDS011;4394;51.208;8.904;2023-04-03T06:51:00;4.37;;;1.67;;
8714;SDS011;4394;51.208;8.904;2023-04-03T06:53:50;2.53;;;1.50;;
8714;SDS011;4394;51.208;8.904;2023-04-03T06:56:39;3.30;;;1.67;;
8714;SDS011;4394;51.208;8.904;2023-04-03T06:59:27;2.30;;;1.90;;
8714;SDS011;4394;51.208;8.904;2023-04-03T07:02:15;3.37;;;1.70;;
8714;SDS011;4394;51.208;8.904;2023-04-03T07:05:03;7.50;;;2.20;;
8714;SDS011;4394;51.208;8.904;2023-04-03T07:07:52;4.00;;;1.70;;
8714;SDS011;4394;51.208;8.904;2023-04-03T07:10:42;4.10;;;1.87;;
8714;SDS011;4394;51.208;8.904;2023-04-03T07:13:29;3.77;;;1.90;;
8714;SDS011;4394;51.208;8.904;2023-04-03T07:16:19;4.63;;;2.10;;
8714;SDS011;4394;51.208;8.904;2023-04-03T07:19:07;4.33;;;1.57;;
8714;SDS011;4394;51.208;8.904;2023-04-03T07:21:56;4.70;;;1.90;;
8714;SDS011;4394;51.208;8.904;2023-04-03T07:24:44;6.20;;;2.30;;
8714;SDS011;4394;51.208;8.904;2023-04-03T07:27:34;5.17;;;2.07;;
8714;SDS011;4394;51.208;8.904;2023-04-03T07:30:22;3.70;;;2.13;;
8714;SDS011;4394;51.208;8.904;2023-04-03T07:33:10;3.33;;;2.10;;
8714;SDS011;4394;51.208;8.904;2023-04-03T07:35:58;5.20;;;1.80;;
8714;SDS011;4394;51.208;8.904;2023-04-03T07:38:47;5.20;;;2.50;;
8714;SDS011;4394;51.208;8.904;2023-04-03T07:41:35;5.30;;;2.07;;
8714;SDS011;4394;51.208;8.904;2023-04-03T07:44:24;2.43;;;1.40;;
8714;SDS011;4394;51.208;8.904;2023-04-03T07:47:12;3.27;;;1.50;;
8714;SDS011;4394;51.208;8.904;2023-04-03T07:50:03;3.73;;;1.80;;
8714;SDS011;4394;51.208;8.904;2023-04-03T07:52:51;8.07;;;2.33;;
8714;SDS011;4394;51.208;8.904;2023-04-03T07:55:40;3.37;;;1.77;;
8714;SDS011;4394;51.208;8.904;2023-04-03T07:58:30;3.47;;;1.80;;
8714;SDS011;4394;51.208;8.904;2023-04-03T08:01:19;5.30;;;1.90;;
8714;SDS011;4394;51.208;8.904;2023-04-03T08:04:07;3.33;;;1.77;;
8714;SDS011;4394;51.208;8.904;2023-04-03T08:06:56;3.07;;;1.90;;
8714;SDS011;4394;51.208;8.904;2023-04-03T08:09:44;3.53;;;1.87;;
8714;SDS011;4394;51.208;8.904;2023-04-03T08:12:32;3.37;;;2.00;;
8714;SDS011;4394;51.208;8.904;2023-04-03T08:15:21;4.23;;;2.20;;
8714;SDS011;4394;51.208;8.904;2023-04-03T08:18:10;4.10;;;1.87;;
8714;SDS011;4394;51.208;8.904;2023-04-03T08:20:58;3.77;;;1.67;;
8714;SDS011;4394;51.208;8.904;2023-04-03T08:23:47;4.27;;;1.93;;
8714;SDS011;4394;51.208;8.904;2023-04-03T08:26:36;3.77;;;2.20;;
8714;SDS011;4394;51.208;8.904;2023-04-03T08:29:24;5.07;;;1.40;;
8714;SDS011;4394;51.208;8.904;2023-04-03T08:32:12;4.17;;;2.07;;
8714;SDS011;4394;51.208;8.904;2023-04-03T08:35:02;3.57;;;1.90;;
8714;SDS011;4394;51.208;8.904;2023-04-03T08:37:50;3.50;;;1.40;;
8714;SDS011;4394;51.208;8.904;2023-04-03T08:40:38;2.63;;;1.40;;
8714;SDS011;4394;51.208;8.904;2023-04-03T08:43:29;2.53;;;1.70;;
8714;SDS011;4394;51.208;8.904;2023-04-03T08:46:22;2.53;;;1.50;;
8714;SDS011;4394;51.208;8.904;2023-04-03T08:49:17;4.20;;;1.43;;
8714;SDS011;4394;51.208;8.904;2023-04-03T08:52:13;5.00;;;1.53;;
8714;SDS011;4394;51.208;8.904;2023-04-03T08:55:05;2.80;;;1.13;;
8714;SDS011;4394;51.208;8.904;2023-04-03T08:58:01;6.10;;;1.83;;
8714;SDS011;4394;51.208;8.904;2023-04-03T09:00:51;3.60;;;1.70;;
8714;SDS011;4394;51.208;8.904;2023-04-03T09:03:43;2.37;;;1.30;;
8714;SDS011;4394;51.208;8.904;2023-04-03T09:06:31;2.67;;;1.60;;
8714;SDS011;4394;51.208;8.904;2023-04-03T09:09:24;2.97;;;1.60;;
8714;SDS011;4394;51.208;8.904;2023-04-03T09:12:23;2.07;;;1.40;;
8714;SDS011;4394;51.208;8.904;2023-04-03T09:15:17;2.10;;;1.30;;
8714;SDS011;4394;51.208;8.904;2023-04-03T09:18:21;4.20;;;1.27;;
8714;SDS011;4394;51.208;8.904;2023-04-03T09:21:16;1.77;;;1.00;;
8714;SDS011;4394;51.208;8.904;2023-04-03T09:24:09;2.63;;;1.43;;
8714;SDS011;4394;51.208;8.904;2023-04-03T09:27:01;2.33;;;1.00;;
8714;SDS011;4394;51.208;8.904;2023-04-03T09:29:52;4.03;;;1.53;;
8714;SDS011;4394;51.208;8.904;2023-04-03T09:32:43;3.17;;;1.30;;
8714;SDS011;4394;51.208;8.904;2023-04-03T09:35:36;3.00;;;1.63;;
8714;SDS011;4394;51.208;8.904;2023-04-03T09:38:34;2.43;;;1.07;;
8714;SDS011;4394;51.208;8.904;2023-04-03T09:41:22;3.23;;;1.13;;
8714;SDS011;4394;51.208;8.904;2023-04-03T09:44:22;1.97;;;1.20;;
8714;SDS011;4394;51.208;8.904;2023-04-03T09:47:17;2.07;;;1.10;;
8714;SDS011;4394;51.208;8.904;2023-04-03T09:50:20;2.40;;;1.30;;
8714;SDS011;4394;51.208;8.904;2023-04-03T09:53:16;2.33;;;1.10;;
8714;SDS011;4394;51.208;8.904;2023-04-03T09:56:19;1.20;;;0.90;;
8714;SDS011;4394;51.208;8.904;2023-04-03T09:59:13;3.87;;;0.93;;
8714;SDS011;4394;51.208;8.904;2023-04-03T10:02:20;2.07;;;1.03;;
8714;SDS011;4394;51.208;8.904;2023-04-03T10:05:26;1.10;;;0.80;;
8714;SDS011;4394;51.208;8.904;2023-04-03T10:08:20;1.63;;;1.13;;
8714;SDS011;4394;51.208;8.904;2023-04-03T10:11:12;4.03;;;1.00;;
8714;SDS011;4394;51.208;8.904;2023-04-03T10:14:02;5.03;;;1.63;;
8714;SDS011;4394;51.208;8.904;2023-04-03T10:16:56;1.90;;;1.00;;
8714;SDS011;4394;51.208;8.904;2023-04-03T10:19:52;3.37;;;1.70;;
8714;SDS011;4394;51.208;8.904;2023-04-03T10:22:45;2.77;;;1.83;;
8714;SDS011;4394;51.208;8.904;2023-04-03T10:25:43;3.20;;;1.33;;
8714;SDS011;4394;51.208;8.904;2023-04-03T10:28:41;2.63;;;1.70;;
8714;SDS011;4394;51.208;8.904;2023-04-03T10:31:36;4.73;;;1.60;;
8714;SDS011;4394;51.208;8.904;2023-04-03T10:34:31;2.43;;;1.13;;
8714;SDS011;4394;51.208;8.904;2023-04-03T10:37:25;2.43;;;1.20;;
8714;SDS011;4394;51.208;8.904;2023-04-03T10:40:22;2.43;;;1.13;;
8714;SDS011;4394;51.208;8.904;2023-04-03T10:43:21;2.80;;;1.10;;
8714;SDS011;4394;51.208;8.904;2023-04-03T10:46:17;3.07;;;1.50;;
8714;SDS011;4394;51.208;8.904;2023-04-03T10:49:13;3.90;;;1.13;;
8714;SDS011;4394;51.208;8.904;2023-04-03T10:52:12;1.70;;;1.10;;
8714;SDS011;4394;51.208;8.904;2023-04-03T10:55:10;1.87;;;1.10;;
8714;SDS011;4394;51.208;8.904;2023-04-03T11:01:06;1.43;;;0.83;;
8714;SDS011;4394;51.208;8.904;2023-04-03T11:03:56;2.77;;;1.20;;
8714;SDS011;4394;51.208;8.904;2023-04-03T11:06:46;3.67;;;1.00;;
8714;SDS011;4394;51.208;8.904;2023-04-03T11:09:37;1.37;;;1.10;;
8714;SDS011;4394;51.208;8.904;2023-04-03T11:12:32;3.37;;;1.30;;
8714;SDS011;4394;51.208;8.904;2023-04-03T11:15:25;3.57;;;1.20;;
8714;SDS011;4394;51.208;8.904;2023-04-03T11:18:18;3.53;;;1.10;;
8714;SDS011;4394;51.208;8.904;2023-04-03T11:21:11;1.73;;;0.80;;
8714;SDS011;4394;51.208;8.904;2023-04-03T11:24:03;2.00;;;1.00;;
8714;SDS011;4394;51.208;8.904;2023-04-03T11:27:00;3.77;;;1.23;;
8714;SDS011;4394;51.208;8.904;2023-04-03T11:29:52;3.03;;;1.10;;
8714;SDS011;4394;51.208;8.904;2023-04-03T11:36:03;1.77;;;1.00;;
8714;SDS011;4394;51.208;8.904;2023-04-03T11:39:15;2.07;;;1.00;;
8714;SDS011;4394;51.208;8.904;2023-04-03T11:42:15;2.87;;;1.00;;
8714;SDS011;4394;51.208;8.904;2023-04-03T11:45:26;2.13;;;1.10;;
8714;SDS011;4394;51.208;8.904;2023-04-03T11:54:36;1.73;;;0.83;;
8714;SDS011;4394;51.208;8.904;2023-04-03T11:57:46;1.57;;;0.83;;
8714;SDS011;4394;51.208;8.904;2023-04-03T12:01:01;2.30;;;0.90;;
8714;SDS011;4394;51.208;8.904;2023-04-03T12:04:06;1.47;;;1.10;;
8714;SDS011;4394;51.208;8.904;2023-04-03T12:10:18;1.80;;;0.83;;
8714;SDS011;4394;51.208;8.904;2023-04-03T12:13:17;2.73;;;0.80;;
8714;SDS011;4394;51.208;8.904;2023-04-03T12:16:10;1.57;;;0.80;;
8714;SDS011;4394;51.208;8.904;2023-04-03T12:22:28;2.20;;;0.90;;
8714;SDS011;4394;51.208;8.904;2023-04-03T12:28:37;1.37;;;0.93;;
8714;SDS011;4394;51.208;8.904;2023-04-03T12:31:32;1.20;;;0.93;;
8714;SDS011;4394;51.208;8.904;2023-04-03T12:34:36;1.90;;;0.73;;
8714;SDS011;4394;51.208;8.904;2023-04-03T12:37:42;2.70;;;1.03;;
8714;SDS011;4394;51.208;8.904;2023-04-03T12:40:39;2.20;;;0.80;;
8714;SDS011;4394;51.208;8.904;2023-04-03T12:43:41;2.40;;;0.77;;
8714;SDS011;4394;51.208;8.904;2023-04-03T12:46:38;1.77;;;1.07;;
8714;SDS011;4394;51.208;8.904;2023-04-03T12:49:33;1.47;;;0.80;;
8714;SDS011;4394;51.208;8.904;2023-04-03T12:52:32;2.40;;;1.40;;
8714;SDS011;4394;51.208;8.904;2023-04-03T12:55:24;2.73;;;1.40;;
8714;SDS011;4394;51.208;8.904;2023-04-03T12:58:13;2.13;;;0.83;;
8714;SDS011;4394;51.208;8.904;2023-04-03T13:01:03;2.37;;;1.13;;
8714;SDS011;4394;51.208;8.904;2023-04-03T13:03:58;1.70;;;0.97;;
8714;SDS011;4394;51.208;8.904;2023-04-03T13:06:46;2.83;;;1.00;;
8714;SDS011;4394;51.208;8.904;2023-04-03T13:09:34;3.20;;;1.17;;
8714;SDS011;4394;51.208;8.904;2023-04-03T13:12:22;3.20;;;0.70;;
8714;SDS011;4394;51.208;8.904;2023-04-03T13:15:12;2.07;;;1.17;;
8714;SDS011;4394;51.208;8.904;2023-04-03T13:18:02;1.47;;;0.83;;
8714;SDS011;4394;51.208;8.904;2023-04-03T13:20:51;3.30;;;1.30;;
8714;SDS011;4394;51.208;8.904;2023-04-03T13:23:43;2.30;;;1.23;;
8714;SDS011;4394;51.208;8.904;2023-04-03T13:26:36;1.70;;;1.03;;
8714;SDS011;4394;51.208;8.904;2023-04-03T13:29:26;2.80;;;1.30;;
8714;SDS011;4394;51.208;8.904;2023-04-03T13:32:18;2.63;;;1.10;;
8714;SDS011;4394;51.208;8.904;2023-04-03T13:38:23;1.90;;;1.20;;
8714;SDS011;4394;51.208;8.904;2023-04-03T13:41:23;4.03;;;1.40;;
8714;SDS011;4394;51.208;8.904;2023-04-03T13:44:32;4.47;;;1.30;;
8714;SDS011;4394;51.208;8.904;2023-04-03T13:47:22;1.93;;;1.20;;
8714;SDS011;4394;51.208;8.904;2023-04-03T13:50:16;4.70;;;1.30;;
8714;SDS011;4394;51.208;8.904;2023-04-03T13:53:09;2.63;;;1.80;;
8714;SDS011;4394;51.208;8.904;2023-04-03T13:56:05;2.60;;;1.33;;
8714;SDS011;4394;51.208;8.904;2023-04-03T13:59:00;2.30;;;1.17;;
8714;SDS011;4394;51.208;8.904;2023-04-03T14:01:53;2.63;;;1.40;;
8714;SDS011;4394;51.208;8.904;2023-04-03T14:04:48;2.17;;;1.27;;
8714;SDS011;4394;51.208;8.904;2023-04-03T14:07:42;4.37;;;1.50;;
8714;SDS011;4394;51.208;8.904;2023-04-03T14:10:30;1.90;;;1.03;;
8714;SDS011;4394;51.208;8.904;2023-04-03T14:13:20;2.80;;;1.43;;
8714;SDS011;4394;51.208;8.904;2023-04-03T14:16:11;2.57;;;1.37;;
8714;SDS011;4394;51.208;8.904;2023-04-03T14:19:01;3.10;;;1.87;;
8714;SDS011;4394;51.208;8.904;2023-04-03T14:21:50;3.97;;;1.97;;
8714;SDS011;4394;51.208;8.904;2023-04-03T14:24:39;2.87;;;1.73;;
8714;SDS011;4394;51.208;8.904;2023-04-03T14:27:28;2.23;;;1.67;;
8714;SDS011;4394;51.208;8.904;2023-04-03T14:30:21;2.03;;;1.40;;
8714;SDS011;4394;51.208;8.904;2023-04-03T14:33:12;2.10;;;1.17;;
8714;SDS011;4394;51.208;8.904;2023-04-03T14:36:02;2.70;;;1.87;;
8714;SDS011;4394;51.208;8.904;2023-04-03T14:38:58;3.63;;;2.40;;
8714;SDS011;4394;51.208;8.904;2023-04-03T14:41:47;4.57;;;1.50;;
8714;SDS011;4394;51.208;8.904;2023-04-03T14:44:35;3.20;;;1.60;;
8714;SDS011;4394;51.208;8.904;2023-04-03T14:47:26;2.23;;;1.47;;
8714;SDS011;4394;51.208;8.904;2023-04-03T14:50:19;4.07;;;1.17;;
8714;SDS011;4394;51.208;8.904;2023-04-03T14:53:09;2.43;;;1.40;;
8714;SDS011;4394;51.208;8.904;2023-04-03T14:56:02;2.43;;;1.57;;
8714;SDS011;4394;51.208;8.904;2023-04-03T14:58:54;4.47;;;1.43;;
8714;SDS011;4394;51.208;8.904;2023-04-03T15:01:44;1.90;;;1.23;;
8714;SDS011;4394;51.208;8.904;2023-04-03T15:04:34;3.33;;;1.23;;
8714;SDS011;4394;51.208;8.904;2023-04-03T15:07:22;2.67;;;1.30;;
8714;SDS011;4394;51.208;8.904;2023-04-03T15:10:16;3.07;;;1.90;;
8714;SDS011;4394;51.208;8.904;2023-04-03T15:13:08;3.03;;;1.60;;
8714;SDS011;4394;51.208;8.904;2023-04-03T15:15:57;2.83;;;1.77;;
8714;SDS011;4394;51.208;8.904;2023-04-03T15:18:46;3.30;;;1.47;;
8714;SDS011;4394;51.208;8.904;2023-04-03T15:21:36;4.43;;;1.50;;
8714;SDS011;4394;51.208;8.904;2023-04-03T15:24:24;2.50;;;1.23;;
8714;SDS011;4394;51.208;8.904;2023-04-03T15:27:12;3.10;;;1.40;;
8714;SDS011;4394;51.208;8.904;2023-04-03T15:30:01;3.97;;;1.40;;
8714;SDS011;4394;51.208;8.904;2023-04-03T15:32:50;1.77;;;1.47;;
8714;SDS011;4394;51.208;8.904;2023-04-03T15:35:39;1.63;;;1.40;;
8714;SDS011;4394;51.208;8.904;2023-04-03T15:38:29;2.80;;;1.70;;
8714;SDS011;4394;51.208;8.904;2023-04-03T15:41:17;1.90;;;1.20;;
8714;SDS011;4394;51.208;8.904;2023-04-03T15:44:05;4.37;;;1.60;;
8714;SDS011;4394;51.208;8.904;2023-04-03T15:46:53;3.53;;;1.70;;
8714;SDS011;4394;51.208;8.904;2023-04-03T15:49:41;3.77;;;1.40;;
8714;SDS011;4394;51.208;8.904;2023-04-03T15:52:30;3.23;;;1.67;;
8714;SDS011;4394;51.208;8.904;2023-04-03T15:55:19;2.20;;;1.63;;
8714;SDS011;4394;51.208;8.904;2023-04-03T15:58:08;2.80;;;1.70;;
8714;SDS011;4394;51.208;8.904;2023-04-03T16:00:57;2.77;;;1.77;;
8714;SDS011;4394;51.208;8.904;2023-04-03T16:03:45;3.93;;;1.33;;
8714;SDS011;4394;51.208;8.904;2023-04-03T16:06:33;2.27;;;1.57;;
8714;SDS011;4394;51.208;8.904;2023-04-03T16:09:21;2.63;;;1.50;;
8714;SDS011;4394;51.208;8.904;2023-04-03T16:12:11;2.10;;;1.37;;
8714;SDS011;4394;51.208;8.904;2023-04-03T16:14:59;2.47;;;1.30;;
8714;SDS011;4394;51.208;8.904;2023-04-03T16:17:47;2.23;;;1.30;;
8714;SDS011;4394;51.208;8.904;2023-04-03T16:20:35;2.70;;;1.30;;
8714;SDS011;4394;51.208;8.904;2023-04-03T16:23:24;6.37;;;2.33;;
8714;SDS011;4394;51.208;8.904;2023-04-03T16:26:12;6.03;;;3.30;;
8714;SDS011;4394;51.208;8.904;2023-04-03T16:29:02;8.93;;;4.43;;
8714;SDS011;4394;51.208;8.904;2023-04-03T16:31:50;4.03;;;2.00;;
8714;SDS011;4394;51.208;8.904;2023-04-03T16:34:38;3.88;;;1.55;;
8714;SDS011;4394;51.208;8.904;2023-04-03T16:37:28;4.03;;;2.10;;
8714;SDS011;4394;51.208;8.904;2023-04-03T16:40:18;4.10;;;2.60;;
8714;SDS011;4394;51.208;8.904;2023-04-03T16:43:06;3.80;;;1.80;;
8714;SDS011;4394;51.208;8.904;2023-04-03T16:45:56;2.17;;;1.70;;
8714;SDS011;4394;51.208;8.904;2023-04-03T16:48:44;2.80;;;1.90;;
8714;SDS011;4394;51.208;8.904;2023-04-03T16:51:32;5.07;;;2.50;;
8714;SDS011;4394;51.208;8.904;2023-04-03T16:54:19;3.87;;;2.70;;
8714;SDS011;4394;51.208;8.904;2023-04-03T16:57:07;3.73;;;2.20;;
8714;SDS011;4394;51.208;8.904;2023-04-03T16:59:55;3.70;;;2.00;;
8714;SDS011;4394;51.208;8.904;2023-04-03T17:02:45;3.27;;;2.00;;
8714;SDS011;4394;51.208;8.904;2023-04-03T17:05:33;6.83;;;2.57;;
8714;SDS011;4394;51.208;8.904;2023-04-03T17:08:21;4.60;;;2.00;;
8714;SDS011;4394;51.208;8.904;2023-04-03T17:11:09;4.17;;;2.60;;
8714;SDS011;4394;51.208;8.904;2023-04-03T17:13:57;5.07;;;3.13;;
8714;SDS011;4394;51.208;8.904;2023-04-03T17:16:45;4.87;;;2.47;;
8714;SDS011;4394;51.208;8.904;2023-04-03T17:19:35;4.10;;;2.00;;
8714;SDS011;4394;51.208;8.904;2023-04-03T17:22:24;2.73;;;1.77;;
8714;SDS011;4394;51.208;8.904;2023-04-03T17:25:12;3.37;;;2.03;;
8714;SDS011;4394;51.208;8.904;2023-04-03T17:28:01;2.70;;;1.60;;
8714;SDS011;4394;51.208;8.904;2023-04-03T17:30:49;2.57;;;1.97;;
8714;SDS011;4394;51.208;8.904;2023-04-03T17:33:37;4.73;;;2.60;;
8714;SDS011;4394;51.208;8.904;2023-04-03T17:36:26;4.90;;;3.20;;
8714;SDS011;4394;51.208;8.904;2023-04-03T17:39:15;4.47;;;2.57;;
8714;SDS011;4394;51.208;8.904;2023-04-03T17:42:03;2.47;;;1.67;;
8714;SDS011;4394;51.208;8.904;2023-04-03T17:44:51;4.00;;;1.77;;
8714;SDS011;4394;51.208;8.904;2023-04-03T17:47:39;1.87;;;1.33;;
8714;SDS011;4394;51.208;8.904;2023-04-03T17:50:27;3.17;;;1.40;;
8714;SDS011;4394;51.208;8.904;2023-04-03T17:53:17;1.93;;;1.30;;
8714;SDS011;4394;51.208;8.904;2023-04-03T17:56:05;2.53;;;1.33;;
8714;SDS011;4394;51.208;8.904;2023-04-03T17:58:54;3.17;;;1.70;;
8714;SDS011;4394;51.208;8.904;2023-04-03T18:01:44;2.20;;;1.60;;
8714;SDS011;4394;51.208;8.904;2023-04-03T18:04:33;2.40;;;1.27;;